sensor_id;sensor_type;location;lat;lon;timestamp;P1;durP1;ratioP1;P2;durP2;ratioP2
57663;SDS011;43493;53.098;6.064;2022-08-19T00:00:34;11.07;;;7.20;;
57663;SDS011;43493;53.098;6.064;2022-08-19T00:03:03;9.53;;;8.13;;
57663;SDS011;43493;53.098;6.064;2022-08-19T00:05:30;11.93;;;8.23;;
57663;SDS011;43493;53.098;6.064;2022-08-19T00:07:56;11.10;;;8.10;;
57663;SDS011;43493;53.098;6.064;2022-08-19T00:10:22;10.57;;;7.73;;
57663;SDS011;43493;53.098;6.064;2022-08-19T00:12:49;11.60;;;7.50;;
57663;SDS011;43493;53.098;6.064;2022-08-19T00:15:17;10.23;;;7.50;;
57663;SDS011;43493;53.098;6.064;2022-08-19T00:17:45;10.43;;;7.77;;
57663;SDS011;43493;53.098;6.064;2022-08-19T00:20:14;10.03;;;7.17;;
57663;SDS011;43493;53.098;6.064;2022-08-19T00:22:42;12.27;;;8.00;;
57663;SDS011;43493;53.098;6.064;2022-08-19T00:25:09;11.83;;;8.03;;
57663;SDS011;43493;53.098;6.064;2022-08-19T00:27:35;14.67;;;7.77;;
57663;SDS011;43493;53.098;6.064;2022-08-19T00:30:02;10.67;;;7.10;;
57663;SDS011;43493;53.098;6.064;2022-08-19T00:32:29;9.27;;;7.10;;
57663;SDS011;43493;53.098;6.064;2022-08-19T00:34:55;10.30;;;7.90;;
57663;SDS011;43493;53.098;6.064;2022-08-19T00:37:21;9.33;;;7.77;;
57663;SDS011;43493;53.098;6.064;2022-08-19T00:39:48;8.30;;;7.13;;
57663;SDS011;43493;53.098;6.064;2022-08-19T00:42:16;8.87;;;7.33;;
57663;SDS011;43493;53.098;6.064;2022-08-19T00:44:42;11.03;;;7.87;;
57663;SDS011;43493;53.098;6.064;2022-08-19T00:47:08;10.47;;;7.50;;
57663;SDS011;43493;53.098;6.064;2022-08-19T00:49:35;9.43;;;7.70;;
57663;SDS011;43493;53.098;6.064;2022-08-19T00:52:08;9.43;;;8.00;;
57663;SDS011;43493;53.098;6.064;2022-08-19T00:54:38;10.77;;;7.17;;
57663;SDS011;43493;53.098;6.064;2022-08-19T00:57:05;9.73;;;8.10;;
57663;SDS011;43493;53.098;6.064;2022-08-19T00:59:37;9.27;;;7.37;;
57663;SDS011;43493;53.098;6.064;2022-08-19T01:02:05;9.00;;;7.80;;
57663;SDS011;43493;53.098;6.064;2022-08-19T01:04:30;9.63;;;8.17;;
57663;SDS011;43493;53.098;6.064;2022-08-19T01:06:56;8.47;;;7.67;;
57663;SDS011;43493;53.098;6.064;2022-08-19T01:09:23;10.93;;;8.13;;
57663;SDS011;43493;53.098;6.064;2022-08-19T01:11:49;9.80;;;8.63;;
57663;SDS011;43493;53.098;6.064;2022-08-19T01:14:15;11.50;;;8.87;;
57663;SDS011;43493;53.098;6.064;2022-08-19T01:16:42;11.20;;;8.23;;
57663;SDS011;43493;53.098;6.064;2022-08-19T01:19:20;10.87;;;9.17;;
57663;SDS011;43493;53.098;6.064;2022-08-19T01:21:52;9.67;;;8.17;;
57663;SDS011;43493;53.098;6.064;2022-08-19T01:24:22;10.33;;;9.23;;
57663;SDS011;43493;53.098;6.064;2022-08-19T01:26:49;11.80;;;8.00;;
57663;SDS011;43493;53.098;6.064;2022-08-19T01:29:15;10.07;;;8.97;;
57663;SDS011;43493;53.098;6.064;2022-08-19T01:31:41;9.43;;;8.40;;
57663;SDS011;43493;53.098;6.064;2022-08-19T01:34:07;10.57;;;8.27;;
57663;SDS011;43493;53.098;6.064;2022-08-19T01:36:34;9.77;;;8.23;;
57663;SDS011;43493;53.098;6.064;2022-08-19T01:39:09;9.83;;;7.97;;
57663;SDS011;43493;53.098;6.064;2022-08-19T01:41:37;11.20;;;9.13;;
57663;SDS011;43493;53.098;6.064;2022-08-19T01:44:04;10.50;;;9.27;;
57663;SDS011;43493;53.098;6.064;2022-08-19T01:46:31;11.60;;;8.13;;
57663;SDS011;43493;53.098;6.064;2022-08-19T01:48:57;11.47;;;9.37;;
57663;SDS011;43493;53.098;6.064;2022-08-19T01:51:23;10.50;;;9.30;;
57663;SDS011;43493;53.098;6.064;2022-08-19T01:53:49;12.10;;;8.73;;
57663;SDS011;43493;53.098;6.064;2022-08-19T01:56:16;11.50;;;9.43;;
57663;SDS011;43493;53.098;6.064;2022-08-19T01:58:53;11.20;;;9.17;;
57663;SDS011;43493;53.098;6.064;2022-08-19T02:01:22;11.57;;;9.63;;
57663;SDS011;43493;53.098;6.064;2022-08-19T02:03:48;11.60;;;9.60;;
57663;SDS011;43493;53.098;6.064;2022-08-19T02:06:14;10.83;;;9.60;;
57663;SDS011;43493;53.098;6.064;2022-08-19T02:08:42;11.03;;;8.47;;
57663;SDS011;43493;53.098;6.064;2022-08-19T02:11:17;11.67;;;9.40;;
57663;SDS011;43493;53.098;6.064;2022-08-19T02:13:48;13.67;;;9.10;;
57663;SDS011;43493;53.098;6.064;2022-08-19T02:16:14;13.17;;;9.17;;
57663;SDS011;43493;53.098;6.064;2022-08-19T02:18:41;11.70;;;8.77;;
57663;SDS011;43493;53.098;6.064;2022-08-19T02:21:07;11.97;;;8.50;;
57663;SDS011;43493;53.098;6.064;2022-08-19T02:23:33;11.10;;;9.23;;
57663;SDS011;43493;53.098;6.064;2022-08-19T02:25:58;11.43;;;9.67;;
57663;SDS011;43493;53.098;6.064;2022-08-19T02:28:24;10.13;;;8.93;;
57663;SDS011;43493;53.098;6.064;2022-08-19T02:30:50;10.17;;;9.00;;
57663;SDS011;43493;53.098;6.064;2022-08-19T02:33:16;9.73;;;8.43;;
57663;SDS011;43493;53.098;6.064;2022-08-19T02:35:45;11.33;;;9.60;;
57663;SDS011;43493;53.098;6.064;2022-08-19T02:38:12;11.30;;;8.93;;
57663;SDS011;43493;53.098;6.064;2022-08-19T02:40:51;10.07;;;9.00;;
57663;SDS011;43493;53.098;6.064;2022-08-19T02:43:28;10.50;;;8.73;;
57663;SDS011;43493;53.098;6.064;2022-08-19T02:45:55;11.40;;;9.27;;
57663;SDS011;43493;53.098;6.064;2022-08-19T02:48:21;11.87;;;9.00;;
57663;SDS011;43493;53.098;6.064;2022-08-19T02:50:49;13.40;;;8.50;;
57663;SDS011;43493;53.098;6.064;2022-08-19T02:53:20;10.20;;;8.63;;
57663;SDS011;43493;53.098;6.064;2022-08-19T02:55:48;11.00;;;8.73;;
57663;SDS011;43493;53.098;6.064;2022-08-19T02:58:15;10.47;;;8.60;;
57663;SDS011;43493;53.098;6.064;2022-08-19T03:00:46;11.57;;;8.40;;
57663;SDS011;43493;53.098;6.064;2022-08-19T03:03:14;11.70;;;8.43;;
57663;SDS011;43493;53.098;6.064;2022-08-19T03:05:40;9.83;;;8.53;;
57663;SDS011;43493;53.098;6.064;2022-08-19T03:08:06;11.40;;;8.17;;
57663;SDS011;43493;53.098;6.064;2022-08-19T03:10:39;10.50;;;7.67;;
57663;SDS011;43493;53.098;6.064;2022-08-19T03:13:08;9.10;;;7.83;;
57663;SDS011;43493;53.098;6.064;2022-08-19T03:15:38;10.17;;;7.87;;
57663;SDS011;43493;53.098;6.064;2022-08-19T03:18:05;10.07;;;7.67;;
57663;SDS011;43493;53.098;6.064;2022-08-19T03:20:31;9.47;;;7.50;;
57663;SDS011;43493;53.098;6.064;2022-08-19T03:22:56;9.07;;;7.60;;
57663;SDS011;43493;53.098;6.064;2022-08-19T03:25:22;9.03;;;8.13;;
57663;SDS011;43493;53.098;6.064;2022-08-19T03:27:48;10.03;;;8.07;;
57663;SDS011;43493;53.098;6.064;2022-08-19T03:30:13;10.90;;;7.43;;
57663;SDS011;43493;53.098;6.064;2022-08-19T03:32:39;8.70;;;7.63;;
57663;SDS011;43493;53.098;6.064;2022-08-19T03:35:05;9.47;;;8.07;;
57663;SDS011;43493;53.098;6.064;2022-08-19T03:37:31;12.67;;;8.00;;
57663;SDS011;43493;53.098;6.064;2022-08-19T03:39:57;10.27;;;8.47;;
57663;SDS011;43493;53.098;6.064;2022-08-19T03:42:23;10.07;;;7.80;;
57663;SDS011;43493;53.098;6.064;2022-08-19T03:44:51;12.53;;;9.87;;
57663;SDS011;43493;53.098;6.064;2022-08-19T03:47:17;11.03;;;9.13;;
57663;SDS011;43493;53.098;6.064;2022-08-19T03:49:43;10.03;;;8.77;;
57663;SDS011;43493;53.098;6.064;2022-08-19T03:52:09;11.07;;;9.20;;
57663;SDS011;43493;53.098;6.064;2022-08-19T03:54:35;12.10;;;9.00;;
57663;SDS011;43493;53.098;6.064;2022-08-19T03:57:03;11.13;;;10.03;;
57663;SDS011;43493;53.098;6.064;2022-08-19T03:59:31;10.93;;;9.73;;
57663;SDS011;43493;53.098;6.064;2022-08-19T04:01:59;11.47;;;9.67;;
57663;SDS011;43493;53.098;6.064;2022-08-19T04:04:26;14.23;;;10.20;;
57663;SDS011;43493;53.098;6.064;2022-08-19T04:06:52;11.30;;;9.27;;
57663;SDS011;43493;53.098;6.064;2022-08-19T04:09:18;11.73;;;9.90;;
57663;SDS011;43493;53.098;6.064;2022-08-19T04:11:47;13.03;;;9.93;;
57663;SDS011;43493;53.098;6.064;2022-08-19T04:14:20;12.47;;;10.57;;
57663;SDS011;43493;53.098;6.064;2022-08-19T04:16:53;13.60;;;10.57;;
57663;SDS011;43493;53.098;6.064;2022-08-19T04:19:19;9.93;;;8.93;;
57663;SDS011;43493;53.098;6.064;2022-08-19T04:21:47;11.50;;;9.67;;
57663;SDS011;43493;53.098;6.064;2022-08-19T04:24:14;11.80;;;9.87;;
57663;SDS011;43493;53.098;6.064;2022-08-19T04:26:41;10.93;;;9.83;;
57663;SDS011;43493;53.098;6.064;2022-08-19T04:29:08;12.67;;;10.03;;
57663;SDS011;43493;53.098;6.064;2022-08-19T04:31:36;13.97;;;10.93;;
57663;SDS011;43493;53.098;6.064;2022-08-19T04:34:05;12.00;;;10.27;;
57663;SDS011;43493;53.098;6.064;2022-08-19T04:36:33;12.00;;;10.23;;
57663;SDS011;43493;53.098;6.064;2022-08-19T04:39:04;12.17;;;10.60;;
57663;SDS011;43493;53.098;6.064;2022-08-19T04:41:33;12.67;;;11.17;;
57663;SDS011;43493;53.098;6.064;2022-08-19T04:44:17;12.38;;;10.38;;
57663;SDS011;43493;53.098;6.064;2022-08-19T04:46:43;13.63;;;12.23;;
57663;SDS011;43493;53.098;6.064;2022-08-19T04:49:10;14.03;;;12.13;;
57663;SDS011;43493;53.098;6.064;2022-08-19T04:51:36;16.07;;;12.77;;
57663;SDS011;43493;53.098;6.064;2022-08-19T04:54:05;13.70;;;11.97;;
57663;SDS011;43493;53.098;6.064;2022-08-19T04:56:30;15.43;;;12.90;;
57663;SDS011;43493;53.098;6.064;2022-08-19T04:58:56;13.77;;;12.37;;
57663;SDS011;43493;53.098;6.064;2022-08-19T05:01:28;15.17;;;12.53;;
57663;SDS011;43493;53.098;6.064;2022-08-19T05:03:55;13.67;;;12.00;;
57663;SDS011;43493;53.098;6.064;2022-08-19T05:06:22;15.33;;;13.37;;
57663;SDS011;43493;53.098;6.064;2022-08-19T05:08:48;16.13;;;13.10;;
57663;SDS011;43493;53.098;6.064;2022-08-19T05:11:16;19.27;;;14.07;;
57663;SDS011;43493;53.098;6.064;2022-08-19T05:13:45;15.23;;;12.60;;
57663;SDS011;43493;53.098;6.064;2022-08-19T05:16:12;15.07;;;13.43;;
57663;SDS011;43493;53.098;6.064;2022-08-19T05:18:39;15.73;;;13.60;;
57663;SDS011;43493;53.098;6.064;2022-08-19T05:21:23;16.77;;;14.60;;
57663;SDS011;43493;53.098;6.064;2022-08-19T05:24:08;15.23;;;13.60;;
57663;SDS011;43493;53.098;6.064;2022-08-19T05:26:41;15.83;;;13.63;;
57663;SDS011;43493;53.098;6.064;2022-08-19T05:29:08;16.33;;;14.60;;
57663;SDS011;43493;53.098;6.064;2022-08-19T05:31:35;15.80;;;13.77;;
57663;SDS011;43493;53.098;6.064;2022-08-19T05:34:03;15.20;;;13.03;;
57663;SDS011;43493;53.098;6.064;2022-08-19T05:36:33;16.77;;;15.03;;
57663;SDS011;43493;53.098;6.064;2022-08-19T05:39:02;17.93;;;14.63;;
57663;SDS011;43493;53.098;6.064;2022-08-19T05:41:28;15.47;;;13.87;;
57663;SDS011;43493;53.098;6.064;2022-08-19T05:43:56;16.27;;;14.67;;
57663;SDS011;43493;53.098;6.064;2022-08-19T05:46:23;15.60;;;13.77;;
57663;SDS011;43493;53.098;6.064;2022-08-19T05:48:49;15.97;;;14.23;;
57663;SDS011;43493;53.098;6.064;2022-08-19T05:51:15;19.77;;;14.47;;
57663;SDS011;43493;53.098;6.064;2022-08-19T05:53:41;18.50;;;13.33;;
57663;SDS011;43493;53.098;6.064;2022-08-19T05:56:09;13.17;;;11.77;;
57663;SDS011;43493;53.098;6.064;2022-08-19T05:58:38;14.20;;;11.43;;
57663;SDS011;43493;53.098;6.064;2022-08-19T06:01:04;12.70;;;11.50;;
57663;SDS011;43493;53.098;6.064;2022-08-19T06:03:35;15.27;;;10.90;;
57663;SDS011;43493;53.098;6.064;2022-08-19T06:06:03;11.97;;;9.57;;
57663;SDS011;43493;53.098;6.064;2022-08-19T06:08:30;11.03;;;9.87;;
57663;SDS011;43493;53.098;6.064;2022-08-19T06:10:56;11.17;;;10.03;;
57663;SDS011;43493;53.098;6.064;2022-08-19T06:13:22;11.70;;;9.73;;
57663;SDS011;43493;53.098;6.064;2022-08-19T06:15:49;10.93;;;9.73;;
57663;SDS011;43493;53.098;6.064;2022-08-19T06:18:15;12.00;;;9.27;;
57663;SDS011;43493;53.098;6.064;2022-08-19T06:20:41;9.70;;;8.73;;
57663;SDS011;43493;53.098;6.064;2022-08-19T06:23:07;13.17;;;10.53;;
57663;SDS011;43493;53.098;6.064;2022-08-19T06:25:34;13.47;;;9.50;;
57663;SDS011;43493;53.098;6.064;2022-08-19T06:28:00;10.40;;;9.30;;
57663;SDS011;43493;53.098;6.064;2022-08-19T06:30:26;10.20;;;8.60;;
57663;SDS011;43493;53.098;6.064;2022-08-19T06:32:52;9.87;;;8.73;;
57663;SDS011;43493;53.098;6.064;2022-08-19T06:35:18;11.40;;;9.27;;
57663;SDS011;43493;53.098;6.064;2022-08-19T06:37:44;11.77;;;9.63;;
57663;SDS011;43493;53.098;6.064;2022-08-19T06:40:10;10.70;;;9.53;;
57663;SDS011;43493;53.098;6.064;2022-08-19T06:42:37;14.38;;;9.18;;
57663;SDS011;43493;53.098;6.064;2022-08-19T06:45:04;12.73;;;9.77;;
57663;SDS011;43493;53.098;6.064;2022-08-19T06:47:32;10.50;;;9.43;;
57663;SDS011;43493;53.098;6.064;2022-08-19T06:49:59;9.93;;;8.40;;
57663;SDS011;43493;53.098;6.064;2022-08-19T06:52:28;12.13;;;9.98;;
57663;SDS011;43493;53.098;6.064;2022-08-19T06:54:59;11.40;;;9.88;;
57663;SDS011;43493;53.098;6.064;2022-08-19T06:57:25;10.80;;;9.80;;
57663;SDS011;43493;53.098;6.064;2022-08-19T06:59:51;12.43;;;10.23;;
57663;SDS011;43493;53.098;6.064;2022-08-19T07:02:18;10.10;;;9.10;;
57663;SDS011;43493;53.098;6.064;2022-08-19T07:04:45;12.32;;;9.05;;
57663;SDS011;43493;53.098;6.064;2022-08-19T07:07:12;10.73;;;9.63;;
57663;SDS011;43493;53.098;6.064;2022-08-19T07:09:39;10.52;;;9.50;;
57663;SDS011;43493;53.098;6.064;2022-08-19T07:12:06;10.15;;;9.15;;
57663;SDS011;43493;53.098;6.064;2022-08-19T07:14:35;10.82;;;9.68;;
57663;SDS011;43493;53.098;6.064;2022-08-19T07:17:02;10.27;;;9.05;;
57663;SDS011;43493;53.098;6.064;2022-08-19T07:19:30;9.88;;;8.88;;
57663;SDS011;43493;53.098;6.064;2022-08-19T07:21:56;10.35;;;9.35;;
57663;SDS011;43493;53.098;6.064;2022-08-19T07:24:25;11.63;;;10.00;;
57663;SDS011;43493;53.098;6.064;2022-08-19T07:26:52;10.10;;;8.95;;
57663;SDS011;43493;53.098;6.064;2022-08-19T07:29:20;10.02;;;9.07;;
57663;SDS011;43493;53.098;6.064;2022-08-19T07:31:50;10.40;;;9.00;;
57663;SDS011;43493;53.098;6.064;2022-08-19T07:34:16;12.48;;;10.45;;
57663;SDS011;43493;53.098;6.064;2022-08-19T07:36:42;10.45;;;9.30;;
57663;SDS011;43493;53.098;6.064;2022-08-19T07:39:10;9.80;;;8.80;;
57663;SDS011;43493;53.098;6.064;2022-08-19T07:41:39;10.25;;;9.25;;
57663;SDS011;43493;53.098;6.064;2022-08-19T07:44:05;12.52;;;9.02;;
57663;SDS011;43493;53.098;6.064;2022-08-19T07:46:35;10.75;;;9.45;;
57663;SDS011;43493;53.098;6.064;2022-08-19T07:49:04;10.70;;;9.38;;
57663;SDS011;43493;53.098;6.064;2022-08-19T07:51:31;10.20;;;9.05;;
57663;SDS011;43493;53.098;6.064;2022-08-19T07:53:57;14.05;;;9.73;;
57663;SDS011;43493;53.098;6.064;2022-08-19T07:56:23;10.75;;;9.27;;
57663;SDS011;43493;53.098;6.064;2022-08-19T07:58:50;11.48;;;9.70;;
57663;SDS011;43493;53.098;6.064;2022-08-19T08:01:18;11.85;;;10.75;;
57663;SDS011;43493;53.098;6.064;2022-08-19T08:03:45;11.48;;;10.40;;
57663;SDS011;43493;53.098;6.064;2022-08-19T08:06:30;12.05;;;10.88;;
57663;SDS011;43493;53.098;6.064;2022-08-19T08:09:15;12.13;;;10.95;;
57663;SDS011;43493;53.098;6.064;2022-08-19T08:12:20;13.48;;;12.20;;
57663;SDS011;43493;53.098;6.064;2022-08-19T08:14:42;14.60;;;13.18;;
57663;SDS011;43493;53.098;6.064;2022-08-19T08:17:11;14.25;;;12.95;;
57663;SDS011;43493;53.098;6.064;2022-08-19T08:19:37;16.10;;;14.57;;
57663;SDS011;43493;53.098;6.064;2022-08-19T08:22:06;14.90;;;13.43;;
57663;SDS011;43493;53.098;6.064;2022-08-19T08:24:33;15.20;;;13.90;;
57663;SDS011;43493;53.098;6.064;2022-08-19T08:27:00;15.27;;;13.77;;
57663;SDS011;43493;53.098;6.064;2022-08-19T08:29:27;14.93;;;13.52;;
57663;SDS011;43493;53.098;6.064;2022-08-19T08:31:54;15.63;;;14.18;;
57663;SDS011;43493;53.098;6.064;2022-08-19T08:34:20;14.55;;;13.20;;
57663;SDS011;43493;53.098;6.064;2022-08-19T08:36:46;16.15;;;14.75;;
57663;SDS011;43493;53.098;6.064;2022-08-19T08:39:13;16.23;;;14.73;;
57663;SDS011;43493;53.098;6.064;2022-08-19T08:41:56;16.98;;;15.40;;
57663;SDS011;43493;53.098;6.064;2022-08-19T08:44:44;17.65;;;16.05;;
57663;SDS011;43493;53.098;6.064;2022-08-19T08:47:14;17.15;;;15.65;;
57663;SDS011;43493;53.098;6.064;2022-08-19T08:52:28;17.58;;;16.02;;
57663;SDS011;43493;53.098;6.064;2022-08-19T08:54:57;18.38;;;16.67;;
57663;SDS011;43493;53.098;6.064;2022-08-19T08:57:39;17.48;;;15.77;;
57663;SDS011;43493;53.098;6.064;2022-08-19T09:00:15;17.80;;;15.98;;
57663;SDS011;43493;53.098;6.064;2022-08-19T09:02:47;18.58;;;16.77;;
57663;SDS011;43493;53.098;6.064;2022-08-19T09:05:13;17.20;;;15.57;;
57663;SDS011;43493;53.098;6.064;2022-08-19T09:10:19;20.25;;;18.35;;
57663;SDS011;43493;53.098;6.064;2022-08-19T09:15:53;19.70;;;18.00;;
57663;SDS011;43493;53.098;6.064;2022-08-19T09:18:23;17.15;;;15.65;;
57663;SDS011;43493;53.098;6.064;2022-08-19T09:20:48;17.45;;;15.75;;
57663;SDS011;43493;53.098;6.064;2022-08-19T09:23:15;20.23;;;18.27;;
57663;SDS011;43493;53.098;6.064;2022-08-19T09:25:41;18.15;;;15.77;;
57663;SDS011;43493;53.098;6.064;2022-08-19T09:28:06;18.15;;;16.48;;
57663;SDS011;43493;53.098;6.064;2022-08-19T09:30:34;20.42;;;18.60;;
57663;SDS011;43493;53.098;6.064;2022-08-19T09:33:04;18.85;;;17.15;;
57663;SDS011;43493;53.098;6.064;2022-08-19T09:35:31;18.00;;;16.35;;
57663;SDS011;43493;53.098;6.064;2022-08-19T09:37:58;20.45;;;18.50;;
57663;SDS011;43493;53.098;6.064;2022-08-19T09:40:25;17.98;;;15.65;;
57663;SDS011;43493;53.098;6.064;2022-08-19T09:42:54;19.00;;;17.00;;
57663;SDS011;43493;53.098;6.064;2022-08-19T09:45:22;18.65;;;16.88;;
57663;SDS011;43493;53.098;6.064;2022-08-19T09:47:51;17.98;;;16.02;;
57663;SDS011;43493;53.098;6.064;2022-08-19T09:50:18;18.25;;;15.88;;
57663;SDS011;43493;53.098;6.064;2022-08-19T09:52:43;18.73;;;15.93;;
57663;SDS011;43493;53.098;6.064;2022-08-19T09:55:10;14.82;;;12.38;;
57663;SDS011;43493;53.098;6.064;2022-08-19T09:57:36;11.70;;;10.50;;
57663;SDS011;43493;53.098;6.064;2022-08-19T10:00:03;14.15;;;11.18;;
57663;SDS011;43493;53.098;6.064;2022-08-19T10:02:30;14.07;;;11.68;;
57663;SDS011;43493;53.098;6.064;2022-08-19T10:04:56;13.45;;;11.85;;
57663;SDS011;43493;53.098;6.064;2022-08-19T10:07:40;13.80;;;12.38;;
57663;SDS011;43493;53.098;6.064;2022-08-19T10:10:06;15.40;;;11.47;;
57663;SDS011;43493;53.098;6.064;2022-08-19T10:12:34;12.10;;;10.73;;
57663;SDS011;43493;53.098;6.064;2022-08-19T10:15:02;14.53;;;10.87;;
57663;SDS011;43493;53.098;6.064;2022-08-19T10:17:29;16.15;;;12.02;;
57663;SDS011;43493;53.098;6.064;2022-08-19T10:19:54;14.73;;;12.00;;
57663;SDS011;43493;53.098;6.064;2022-08-19T10:22:20;12.67;;;10.00;;
57663;SDS011;43493;53.098;6.064;2022-08-19T10:24:47;13.43;;;10.10;;
57663;SDS011;43493;53.098;6.064;2022-08-19T10:27:12;14.03;;;10.43;;
57663;SDS011;43493;53.098;6.064;2022-08-19T10:29:39;14.43;;;12.53;;
57663;SDS011;43493;53.098;6.064;2022-08-19T10:32:06;15.13;;;11.63;;
57663;SDS011;43493;53.098;6.064;2022-08-19T10:34:33;16.00;;;12.07;;
57663;SDS011;43493;53.098;6.064;2022-08-19T10:37:01;14.63;;;11.87;;
57663;SDS011;43493;53.098;6.064;2022-08-19T10:39:30;13.33;;;11.13;;
57663;SDS011;43493;53.098;6.064;2022-08-19T10:41:57;15.33;;;10.90;;
57663;SDS011;43493;53.098;6.064;2022-08-19T10:44:23;16.77;;;11.13;;
57663;SDS011;43493;53.098;6.064;2022-08-19T10:46:50;13.03;;;10.07;;
57663;SDS011;43493;53.098;6.064;2022-08-19T10:49:17;13.37;;;10.73;;
57663;SDS011;43493;53.098;6.064;2022-08-19T10:51:44;15.67;;;11.13;;
57663;SDS011;43493;53.098;6.064;2022-08-19T10:54:28;15.45;;;11.40;;
57663;SDS011;43493;53.098;6.064;2022-08-19T10:57:13;14.55;;;11.07;;
57663;SDS011;43493;53.098;6.064;2022-08-19T10:59:40;12.40;;;9.30;;
57663;SDS011;43493;53.098;6.064;2022-08-19T11:02:07;11.30;;;10.10;;
57663;SDS011;43493;53.098;6.064;2022-08-19T11:04:36;15.83;;;12.00;;
57663;SDS011;43493;53.098;6.064;2022-08-19T11:07:03;11.77;;;8.70;;
57663;SDS011;43493;53.098;6.064;2022-08-19T11:09:30;14.77;;;10.07;;
57663;SDS011;43493;53.098;6.064;2022-08-19T11:11:56;15.13;;;12.27;;
57663;SDS011;43493;53.098;6.064;2022-08-19T11:14:23;15.20;;;10.93;;
57663;SDS011;43493;53.098;6.064;2022-08-19T11:16:50;18.73;;;11.60;;
57663;SDS011;43493;53.098;6.064;2022-08-19T11:19:18;16.13;;;11.27;;
57663;SDS011;43493;53.098;6.064;2022-08-19T11:21:45;16.33;;;12.20;;
57663;SDS011;43493;53.098;6.064;2022-08-19T11:24:14;15.63;;;11.20;;
57663;SDS011;43493;53.098;6.064;2022-08-19T11:26:45;16.73;;;11.13;;
57663;SDS011;43493;53.098;6.064;2022-08-19T11:29:14;16.40;;;11.10;;
57663;SDS011;43493;53.098;6.064;2022-08-19T11:31:43;13.83;;;12.10;;
57663;SDS011;43493;53.098;6.064;2022-08-19T11:34:11;21.60;;;13.30;;
57663;SDS011;43493;53.098;6.064;2022-08-19T11:36:42;16.73;;;12.67;;
57663;SDS011;43493;53.098;6.064;2022-08-19T11:39:10;18.17;;;13.27;;
57663;SDS011;43493;53.098;6.064;2022-08-19T11:41:38;16.77;;;13.30;;
57663;SDS011;43493;53.098;6.064;2022-08-19T11:44:04;18.63;;;14.33;;
57663;SDS011;43493;53.098;6.064;2022-08-19T11:46:33;20.77;;;15.30;;
57663;SDS011;43493;53.098;6.064;2022-08-19T11:49:00;19.10;;;15.33;;
57663;SDS011;43493;53.098;6.064;2022-08-19T11:51:28;20.03;;;15.97;;
57663;SDS011;43493;53.098;6.064;2022-08-19T11:53:54;21.33;;;16.20;;
57663;SDS011;43493;53.098;6.064;2022-08-19T11:56:21;20.50;;;16.90;;
57663;SDS011;43493;53.098;6.064;2022-08-19T11:58:48;19.07;;;16.80;;
57663;SDS011;43493;53.098;6.064;2022-08-19T12:01:14;22.00;;;16.60;;
57663;SDS011;43493;53.098;6.064;2022-08-19T12:03:42;23.33;;;16.83;;
57663;SDS011;43493;53.098;6.064;2022-08-19T12:06:17;22.40;;;17.20;;
57663;SDS011;43493;53.098;6.064;2022-08-19T12:08:49;21.93;;;17.43;;
57663;SDS011;43493;53.098;6.064;2022-08-19T12:11:14;23.23;;;15.53;;
57663;SDS011;43493;53.098;6.064;2022-08-19T12:13:41;26.10;;;19.53;;
57663;SDS011;43493;53.098;6.064;2022-08-19T12:16:12;26.07;;;21.40;;
57663;SDS011;43493;53.098;6.064;2022-08-19T12:18:40;22.73;;;19.17;;
57663;SDS011;43493;53.098;6.064;2022-08-19T12:21:11;23.30;;;17.87;;
57663;SDS011;43493;53.098;6.064;2022-08-19T12:23:38;19.87;;;14.97;;
57663;SDS011;43493;53.098;6.064;2022-08-19T12:26:08;24.43;;;18.27;;
57663;SDS011;43493;53.098;6.064;2022-08-19T12:28:35;24.37;;;18.10;;
57663;SDS011;43493;53.098;6.064;2022-08-19T12:31:01;23.50;;;17.33;;
57663;SDS011;43493;53.098;6.064;2022-08-19T12:33:27;20.00;;;16.00;;
57663;SDS011;43493;53.098;6.064;2022-08-19T12:35:53;20.40;;;15.53;;
57663;SDS011;43493;53.098;6.064;2022-08-19T12:38:20;19.77;;;15.30;;
57663;SDS011;43493;53.098;6.064;2022-08-19T12:40:49;17.47;;;13.53;;
57663;SDS011;43493;53.098;6.064;2022-08-19T12:43:16;19.97;;;14.47;;
57663;SDS011;43493;53.098;6.064;2022-08-19T12:45:43;20.03;;;14.30;;
57663;SDS011;43493;53.098;6.064;2022-08-19T12:48:10;22.83;;;16.30;;
57663;SDS011;43493;53.098;6.064;2022-08-19T12:50:38;19.17;;;15.80;;
57663;SDS011;43493;53.098;6.064;2022-08-19T12:53:04;23.77;;;18.10;;
57663;SDS011;43493;53.098;6.064;2022-08-19T12:55:30;22.43;;;18.20;;
57663;SDS011;43493;53.098;6.064;2022-08-19T12:57:56;25.13;;;19.43;;
57663;SDS011;43493;53.098;6.064;2022-08-19T13:00:22;23.77;;;18.10;;
57663;SDS011;43493;53.098;6.064;2022-08-19T13:02:49;27.23;;;20.37;;
57663;SDS011;43493;53.098;6.064;2022-08-19T13:05:18;20.87;;;18.60;;
57663;SDS011;43493;53.098;6.064;2022-08-19T13:07:47;23.63;;;19.70;;
57663;SDS011;43493;53.098;6.064;2022-08-19T13:10:15;22.87;;;17.90;;
57663;SDS011;43493;53.098;6.064;2022-08-19T13:12:43;17.70;;;14.33;;
57663;SDS011;43493;53.098;6.064;2022-08-19T13:15:10;18.07;;;12.93;;
57663;SDS011;43493;53.098;6.064;2022-08-19T13:17:37;14.57;;;12.47;;
57663;SDS011;43493;53.098;6.064;2022-08-19T13:20:03;15.00;;;10.63;;
57663;SDS011;43493;53.098;6.064;2022-08-19T13:22:32;15.67;;;11.20;;
57663;SDS011;43493;53.098;6.064;2022-08-19T13:24:58;16.37;;;13.20;;
57663;SDS011;43493;53.098;6.064;2022-08-19T13:27:23;20.00;;;15.20;;
57663;SDS011;43493;53.098;6.064;2022-08-19T13:29:49;15.17;;;13.23;;
57663;SDS011;43493;53.098;6.064;2022-08-19T13:32:33;14.43;;;10.13;;
57663;SDS011;43493;53.098;6.064;2022-08-19T13:35:18;12.82;;;8.18;;
57663;SDS011;43493;53.098;6.064;2022-08-19T13:37:43;13.70;;;8.73;;
57663;SDS011;43493;53.098;6.064;2022-08-19T13:42:40;10.57;;;9.40;;
57663;SDS011;43493;53.098;6.064;2022-08-19T13:45:11;12.50;;;9.87;;
57663;SDS011;43493;53.098;6.064;2022-08-19T13:47:39;14.13;;;10.60;;
57663;SDS011;43493;53.098;6.064;2022-08-19T13:50:08;11.40;;;10.10;;
57663;SDS011;43493;53.098;6.064;2022-08-19T13:52:36;10.17;;;8.23;;
57663;SDS011;43493;53.098;6.064;2022-08-19T13:55:02;9.37;;;6.90;;
57663;SDS011;43493;53.098;6.064;2022-08-19T13:57:29;7.03;;;6.07;;
57663;SDS011;43493;53.098;6.064;2022-08-19T13:59:55;9.17;;;6.83;;
57663;SDS011;43493;53.098;6.064;2022-08-19T14:02:23;9.63;;;6.13;;
57663;SDS011;43493;53.098;6.064;2022-08-19T14:04:48;8.67;;;5.47;;
57663;SDS011;43493;53.098;6.064;2022-08-19T14:07:14;7.00;;;5.50;;
57663;SDS011;43493;53.098;6.064;2022-08-19T14:09:40;11.47;;;6.23;;
57663;SDS011;43493;53.098;6.064;2022-08-19T14:12:06;8.50;;;6.07;;
57663;SDS011;43493;53.098;6.064;2022-08-19T14:14:32;8.07;;;6.17;;
57663;SDS011;43493;53.098;6.064;2022-08-19T14:17:05;12.70;;;7.50;;
57663;SDS011;43493;53.098;6.064;2022-08-19T14:19:31;9.50;;;7.10;;
57663;SDS011;43493;53.098;6.064;2022-08-19T14:21:57;11.83;;;7.17;;
57663;SDS011;43493;53.098;6.064;2022-08-19T14:24:23;10.17;;;8.43;;
57663;SDS011;43493;53.098;6.064;2022-08-19T14:26:49;10.40;;;7.53;;
57663;SDS011;43493;53.098;6.064;2022-08-19T14:29:14;8.27;;;6.60;;
57663;SDS011;43493;53.098;6.064;2022-08-19T14:31:41;9.30;;;6.97;;
57663;SDS011;43493;53.098;6.064;2022-08-19T14:34:08;9.43;;;7.97;;
57663;SDS011;43493;53.098;6.064;2022-08-19T14:36:35;10.53;;;8.27;;
57663;SDS011;43493;53.098;6.064;2022-08-19T14:39:02;9.67;;;7.93;;
57663;SDS011;43493;53.098;6.064;2022-08-19T14:41:28;11.70;;;8.73;;
57663;SDS011;43493;53.098;6.064;2022-08-19T14:43:55;13.67;;;9.40;;